Time,TemperatureF,DewpointF,PressureIn,WindDirection,WindDirectionDegrees,WindSpeedMPH,WindSpeedGustMPH,Humidity,HourlyPrecipIn,Conditions,Clouds,dailyrainin,SoftwareType,DateUTC
2013-04-20 00:02:00,46.5,44.9,30.12,West,268,2.0,2.0,94,0.00,,OVC004,-99.99,VWS V12.07,2013-04-20 07:02:00,
2013-04-20 01:02:00,46.7,45.1,30.13,WSW,240,0.0,0.0,94,0.00,,OVC004,-99.99,VWS V12.07,2013-04-20 08:02:00,
2013-04-20 02:02:00,46.5,44.9,30.12,West,280,1.0,2.0,94,0.00, BR,,-99.99,VWS V12.07,2013-04-20 09:02:00,
2013-04-20 03:02:00,46.4,44.8,30.12,NNE,18,2.0,2.0,94,0.01,,OVC004,-99.99,VWS V12.07,2013-04-20 10:02:00,
2013-04-20 04:02:00,46.1,44.5,30.14,ENE,73,0.0,1.0,94,0.01, BR,,-99.99,VWS V12.07,2013-04-20 11:02:00,
2013-04-20 05:02:00,45.8,44.2,30.16,ENE,76,1.0,1.0,94,0.05, BR,,-99.99,VWS V12.07,2013-04-20 12:02:00,
2013-04-20 06:02:00,45.2,43.6,30.17,WSW,243,0.0,0.0,94,0.07, -RA BR,-RA,-99.99,VWS V12.07,2013-04-20 13:02:00,
2013-04-20 07:02:00,45.4,43.8,30.18,WSW,243,0.0,0.0,94,0.03, -RA BR,-RA,-99.99,VWS V12.07,2013-04-20 14:02:00,
2013-04-20 08:03:00,45.4,43.8,30.19,West,268,1.0,1.0,94,0.02, -RA BR,-RA,-99.99,VWS V12.07,2013-04-20 15:03:00,
2013-04-20 09:03:00,45.2,43.6,30.19,East,79,0.0,1.0,94,0.03, -RA BR,-RA,-99.99,VWS V12.07,2013-04-20 16:03:00,
2013-04-20 10:02:00,45.4,43.8,30.20,East,85,0.0,0.0,94,0.01, -RA BR,-RA,-99.99,VWS V12.07,2013-04-20 17:02:00,
2013-04-20 11:02:00,45.4,43.8,30.22,ENE,78,0.0,0.0,94,0.09, BR,,-99.99,VWS V12.07,2013-04-20 18:02:00,
2013-04-20 12:02:00,46.4,44.8,30.22,ENE,59,0.0,0.0,94,0.01,,OVC010,-99.99,VWS V12.07,2013-04-20 19:02:00,
2013-04-20 13:02:00,48.3,46.7,30.21,East,89,1.0,1.0,94,0.00,,OVC011,-99.99,VWS V12.07,2013-04-20 20:02:00,
2013-04-20 14:02:00,51.1,47.7,30.18,NNE,21,0.0,1.0,88,0.00,,OVC020,-99.99,VWS V12.07,2013-04-20 21:02:00,
2013-04-20 15:02:00,52.2,46.2,30.18,NNW,336,0.0,0.0,80,0.00,,BKN065,-99.99,VWS V12.07,2013-04-20 22:02:00,
2013-04-20 16:02:00,52.0,47.3,30.18,ENE,69,1.0,1.0,84,0.00,,OVC065,-99.99,VWS V12.07,2013-04-20 23:02:00,
2013-04-20 17:02:00,49.9,45.6,30.18,North,357,0.0,0.0,85,0.01,,OVC065,-99.99,VWS V12.07,2013-04-21 00:02:00,
2013-04-20 18:02:00,48.2,42.7,30.19,ENE,64,0.0,2.0,81,0.00, -RA,-RA,-99.99,VWS V12.07,2013-04-21 01:02:00,
2013-04-20 19:02:00,47.4,44.0,30.17,SSW,193,0.0,0.0,88,0.02, -RA,-RA,-99.99,VWS V12.07,2013-04-21 02:02:00,
2013-04-20 20:02:00,46.1,43.3,30.18,SW,222,0.0,0.0,90,0.01,,OVC035,-99.99,VWS V12.07,2013-04-21 03:02:00,
2013-04-20 21:02:00,45.4,42.9,30.19,SSW,199,0.0,0.0,91,0.03, -RA,-RA,-99.99,VWS V12.07,2013-04-21 04:02:00,
2013-04-20 22:02:00,44.9,42.7,30.20,West,265,0.0,0.0,92,0.01, -RA,-RA,-99.99,VWS V12.07,2013-04-21 05:02:00,
2013-04-20 23:02:00,44.9,42.7,30.21,West,265,0.0,0.0,92,0.03, -RA BR,-RA,-99.99,VWS V12.07,2013-04-21 06:02:00,